createdAt,value
2023-01-13T00:00:03.036Z,100422.91
2023-01-13T00:02:38.351Z,100415.66
2023-01-13T00:05:11.204Z,100428.63
2023-01-13T00:07:40.911Z,100414.00
2023-01-13T00:10:11.245Z,100415.31
2023-01-13T00:12:42.103Z,100410.47
2023-01-13T00:15:09.790Z,100403.22
2023-01-13T00:17:36.511Z,100390.22
2023-01-13T00:20:03.843Z,100407.84
2023-01-13T00:22:34.936Z,100398.34
2023-01-13T00:25:01.845Z,100404.75
2023-01-13T00:27:31.590Z,100404.25
2023-01-13T00:29:58.633Z,100403.31
2023-01-13T00:32:25.109Z,100421.09
2023-01-13T00:34:51.613Z,100413.84
2023-01-13T00:37:18.280Z,100431.63
2023-01-13T00:39:47.119Z,100429.41
2023-01-13T00:42:32.176Z,100428.09
2023-01-13T00:44:58.687Z,100421.53
2023-01-13T00:47:25.425Z,100421.84
2023-01-13T00:49:51.877Z,100417.50
2023-01-13T00:52:19.509Z,100405.31
2023-01-13T00:54:45.949Z,100402.09
2023-01-13T00:57:21.728Z,100395.53
2023-01-13T00:59:49.635Z,100382.69
2023-01-13T01:02:16.400Z,100384.78
2023-01-13T01:04:42.921Z,100382.06
2023-01-13T01:07:09.372Z,100380.78
2023-01-13T01:09:35.922Z,100374.50
2023-01-13T01:12:05.430Z,100369.88
2023-01-13T01:14:31.963Z,100379.97
2023-01-13T01:16:58.581Z,100369.56
2023-01-13T01:19:25.131Z,100365.72
2023-01-13T01:21:51.646Z,100371.78
2023-01-13T01:24:19.333Z,100376.13
2023-01-13T01:26:45.842Z,100360.56
2023-01-13T01:29:15.330Z,100358.66
2023-01-13T01:31:45.210Z,100357.53
2023-01-13T01:34:11.794Z,100369.88
2023-01-13T01:36:39.141Z,100370.66
2023-01-13T01:39:07.467Z,100376.94
2023-01-13T01:41:35.603Z,100375.81
2023-01-13T01:44:07.477Z,100390.75
2023-01-13T01:46:35.983Z,100377.09
2023-01-13T01:49:05.627Z,100387.53
2023-01-13T01:51:36.928Z,100399.41
2023-01-13T01:54:09.083Z,100407.91
2023-01-13T01:56:36.805Z,100401.66
2023-01-13T01:59:09.619Z,100400.84
2023-01-13T02:01:37.686Z,100403.06
2023-01-13T02:04:15.268Z,100387.53
2023-01-13T02:06:44.336Z,100381.25
2023-01-13T02:09:14.047Z,100376.13
2023-01-13T02:11:59.188Z,100375.31
2023-01-13T02:14:28.438Z,100378.19
2023-01-13T02:17:16.291Z,100384.06
2023-01-13T02:20:20.078Z,100387.28
2023-01-13T02:23:04.637Z,100390.31
2023-01-13T02:26:29.850Z,100369.16
2023-01-13T02:29:56.944Z,100371.56
2023-01-13T02:32:41.138Z,100367.22
2023-01-13T02:35:24.103Z,100369.16
2023-01-13T02:37:55.987Z,100360.97
2023-01-13T02:40:48.757Z,100353.91
2023-01-13T02:43:52.780Z,100348.16
2023-01-13T02:46:30.279Z,100337.25
2023-01-13T02:49:01.305Z,100333.41
2023-01-13T02:51:31.326Z,100342.69
2023-01-13T02:54:07.255Z,100344.47
2023-01-13T02:56:42.823Z,100349.63
2023-01-13T02:59:10.486Z,100345.78
2023-01-13T03:01:37.759Z,100345.47
2023-01-13T03:04:15.679Z,100342.56
2023-01-13T03:07:06.440Z,100348.00
2023-01-13T03:09:41.706Z,100348.50
2023-01-13T03:12:26.320Z,100349.50
2023-01-13T03:14:59.643Z,100338.59
2023-01-13T03:17:42.679Z,100329.28
2023-01-13T03:20:26.169Z,100326.69
2023-01-13T03:23:08.565Z,100333.91
2023-01-13T03:25:43.395Z,100332.09
2023-01-13T03:28:27.023Z,100330.69
2023-01-13T03:30:59.551Z,100326.34
2023-01-13T03:33:32.741Z,100330.19
2023-01-13T03:36:05.311Z,100326.97
2023-01-13T03:38:35.691Z,100340.44
2023-01-13T03:41:08.947Z,100345.41
2023-01-13T03:44:06.797Z,100349.72
2023-01-13T03:46:41.991Z,100351.69
2023-01-13T03:49:16.501Z,100350.25
2023-01-13T03:51:49.948Z,100328.44
2023-01-13T03:54:20.073Z,100331.47
2023-01-13T03:56:51.487Z,100332.59
2023-01-13T03:59:22.963Z,100329.38
2023-01-13T04:02:43.817Z,100335.13
2023-01-13T04:05:13.955Z,100335.63
2023-01-13T04:07:51.121Z,100326.81
2023-01-13T04:10:34.473Z,100333.19
2023-01-13T04:13:12.345Z,100324.03
2023-01-13T04:15:42.841Z,100322.31
2023-01-13T04:18:13.547Z,100327.88
2023-01-13T04:20:44.268Z,100322.25
2023-01-13T04:23:12.164Z,100334.94
2023-01-13T04:25:42.294Z,100347.75
2023-01-13T04:28:09.613Z,100347.88
2023-01-13T04:30:36.462Z,100339.22
2023-01-13T04:33:06.557Z,100337.00
2023-01-13T04:35:34.754Z,100342.25
2023-01-13T04:38:10.767Z,100345.28
2023-01-13T04:40:37.860Z,100351.66
2023-01-13T04:43:04.499Z,100340.28
2023-01-13T04:45:31.533Z,100352.78
2023-01-13T04:47:58.212Z,100341.69
2023-01-13T04:50:25.351Z,100330.50
2023-01-13T04:52:53.183Z,100336.59
2023-01-13T04:55:21.511Z,100335.44
2023-01-13T04:57:50.913Z,100340.44
2023-01-13T05:00:21.111Z,100335.59
2023-01-13T05:02:50.718Z,100341.03
2023-01-13T05:05:17.943Z,100345.38
2023-01-13T05:07:46.119Z,100343.50
2023-01-13T05:10:12.903Z,100334.69
2023-01-13T05:12:58.732Z,100327.03
2023-01-13T05:15:43.920Z,100320.91
2023-01-13T05:18:11.037Z,100326.84
2023-01-13T05:20:37.649Z,100318.84
2023-01-13T05:23:22.667Z,100321.25
2023-01-13T05:25:49.569Z,100313.28
2023-01-13T05:28:16.973Z,100315.31
2023-01-13T05:30:47.107Z,100308.25
2023-01-13T05:33:16.637Z,100312.59
2023-01-13T05:35:45.323Z,100302.19
2023-01-13T05:38:13.348Z,100314.38
2023-01-13T05:40:59.707Z,100322.06
2023-01-13T05:43:27.961Z,100319.16
2023-01-13T05:46:01.806Z,100322.50
2023-01-13T05:48:30.051Z,100339.16
2023-01-13T05:50:57.109Z,100327.78
2023-01-13T05:53:25.999Z,100327.78
2023-01-13T05:55:52.838Z,100330.97
2023-01-13T05:58:20.979Z,100324.22
2023-01-13T06:00:48.028Z,100334.00
2023-01-13T06:03:16.428Z,100335.41
2023-01-13T06:05:43.564Z,100329.47
2023-01-13T06:08:13.013Z,100332.69
2023-01-13T06:10:39.590Z,100326.25
2023-01-13T06:13:06.803Z,100321.59
2023-01-13T06:15:33.376Z,100334.41
2023-01-13T06:18:02.187Z,100340.78
2023-01-13T06:20:28.709Z,100327.19
2023-01-13T06:22:55.406Z,100334.72
2023-01-13T06:25:42.628Z,100341.78
2023-01-13T06:28:12.107Z,100334.91
2023-01-13T06:30:43.203Z,100342.16
2023-01-13T06:33:14.800Z,100333.69
2023-01-13T06:35:48.553Z,100333.88
2023-01-13T06:38:18.981Z,100345.09
2023-01-13T06:40:49.796Z,100347.50
2023-01-13T06:43:17.335Z,100344.47
2023-01-13T06:45:55.010Z,100360.50
2023-01-13T06:48:36.644Z,100351.72
2023-01-13T06:51:04.746Z,100349.50
2023-01-13T06:53:31.589Z,100354.63
2023-01-13T06:55:59.469Z,100352.72
2023-01-13T06:58:26.193Z,100364.72
2023-01-13T07:00:53.642Z,100364.41
2023-01-13T07:03:20.288Z,100361.69
2023-01-13T07:05:54.829Z,100360.25
2023-01-13T07:08:24.619Z,100362.19
2023-01-13T07:10:52.908Z,100368.44
2023-01-13T07:13:38.153Z,100373.09
2023-01-13T07:16:06.929Z,100367.50
2023-01-13T07:18:34.832Z,100371.03
2023-01-13T07:21:08.666Z,100376.50
2023-01-13T07:23:41.224Z,100368.63
2023-01-13T07:26:11.432Z,100377.16
2023-01-13T07:28:41.735Z,100385.00
2023-01-13T07:31:34.226Z,100376.03
2023-01-13T07:34:03.270Z,100387.72
2023-01-13T07:36:30.756Z,100384.38
2023-01-13T07:38:59.498Z,100368.53
2023-01-13T07:41:44.901Z,100376.19
2023-01-13T07:44:11.503Z,100390.50
2023-01-13T07:46:39.206Z,100387.78
2023-01-13T07:49:06.868Z,100385.53
2023-01-13T07:51:38.060Z,100391.50
2023-01-13T07:54:07.383Z,100388.78
2023-01-13T07:56:33.975Z,100387.03
2023-01-13T07:59:01.406Z,100403.38
2023-01-13T08:01:29.778Z,100393.59
2023-01-13T08:03:58.905Z,100401.16
2023-01-13T08:06:28.777Z,100401.97
2023-01-13T08:08:55.484Z,100405.66
2023-01-13T08:11:23.549Z,100388.19
2023-01-13T08:13:50.588Z,100387.38
2023-01-13T08:16:20.168Z,100393.34
2023-01-13T08:18:46.681Z,100400.72
2023-01-13T08:21:14.945Z,100405.84
2023-01-13T08:23:43.480Z,100390.59
2023-01-13T08:26:16.350Z,100400.72
2023-01-13T08:28:43.528Z,100405.53
2023-01-13T08:31:13.958Z,100410.38
2023-01-13T08:33:41.821Z,100409.41
2023-01-13T08:36:12.350Z,100407.97
2023-01-13T08:38:40.346Z,100424.03
2023-01-13T08:41:12.379Z,100422.22
2023-01-13T08:43:39.118Z,100429.09
2023-01-13T08:46:08.807Z,100437.63
2023-01-13T08:48:35.393Z,100439.06
2023-01-13T08:51:04.736Z,100444.50
2023-01-13T08:53:31.513Z,100445.13
2023-01-13T08:55:58.167Z,100444.63
2023-01-13T08:58:25.644Z,100461.31
2023-01-13T09:00:55.296Z,100463.53
2023-01-13T09:03:21.923Z,100472.34
2023-01-13T09:05:48.600Z,100474.38
2023-01-13T09:08:15.373Z,100471.16
2023-01-13T09:10:42.117Z,100480.44
2023-01-13T09:13:12.783Z,100466.81
2023-01-13T09:15:45.112Z,100475.81
2023-01-13T09:18:12.325Z,100484.78
2023-01-13T09:20:42.071Z,100484.28
2023-01-13T09:23:10.576Z,100492.16
2023-01-13T09:25:42.100Z,100500.63
2023-01-13T09:28:11.765Z,100499.03
2023-01-13T09:30:40.931Z,100496.91
2023-01-13T09:33:28.732Z,100494.81
2023-01-13T09:35:59.087Z,100490.00
2023-01-13T09:38:25.932Z,100503.94
2023-01-13T09:40:52.982Z,100489.50
2023-01-13T09:44:00.719Z,100497.69
2023-01-13T09:46:47.447Z,100519.97
2023-01-13T09:49:31.072Z,100508.44
2023-01-13T09:52:08.041Z,100518.09
2023-01-13T09:54:54.727Z,100519.28
2023-01-13T09:57:21.843Z,100516.75
2023-01-13T09:59:48.621Z,100515.63
2023-01-13T10:02:36.618Z,100526.25
2023-01-13T10:05:06.785Z,100520.47
2023-01-13T10:07:37.173Z,100516.63
2023-01-13T10:10:09.183Z,100523.88
2023-01-13T10:12:54.522Z,100517.81
2023-01-13T10:15:28.240Z,100531.75
2023-01-13T10:18:29.963Z,100538.31
2023-01-13T10:20:56.518Z,100533.38
2023-01-13T10:23:35.362Z,100539.94
2023-01-13T10:26:25.134Z,100548.13
2023-01-13T10:28:53.486Z,100546.69
2023-01-13T10:31:22.139Z,100557.25
2023-01-13T10:33:57.558Z,100560.19
2023-01-13T10:36:24.376Z,100567.75
2023-01-13T10:38:51.053Z,100566.81
2023-01-13T10:41:20.082Z,100565.38
2023-01-13T10:43:52.643Z,100564.59
2023-01-13T10:46:20.617Z,100562.66
2023-01-13T10:48:58.910Z,100583.69
2023-01-13T10:51:37.767Z,100562.66
2023-01-13T10:54:13.500Z,100567.63
2023-01-13T10:56:43.007Z,100576.31
2023-01-13T10:59:22.256Z,100571.53
2023-01-13T11:02:03.966Z,100586.97
2023-01-13T11:04:36.872Z,100580.09
2023-01-13T11:07:07.327Z,100576.25
2023-01-13T11:09:34.359Z,100591.19
2023-01-13T11:12:02.972Z,100596.00
2023-01-13T11:14:42.724Z,100593.75
2023-01-13T11:17:16.407Z,100597.28
2023-01-13T11:19:51.031Z,100594.25
2023-01-13T11:22:23.931Z,100605.16
2023-01-13T11:25:02.690Z,100599.72
2023-01-13T11:27:47.676Z,100599.41
2023-01-13T11:30:34.755Z,100595.75
2023-01-13T11:33:04.923Z,100600.28
2023-01-13T11:35:35.903Z,100604.47
2023-01-13T11:38:17.590Z,100602.13
2023-01-13T11:40:48.967Z,100613.19
2023-01-13T11:43:42.707Z,100607.91
2023-01-13T11:46:10.221Z,100618.22
2023-01-13T11:48:42.090Z,100623.53
2023-01-13T11:51:22.680Z,100617.78
2023-01-13T11:53:58.040Z,100617.47
2023-01-13T11:56:43.103Z,100630.78
2023-01-13T11:59:27.743Z,100643.03
2023-01-13T12:02:32.577Z,100639.97
2023-01-13T12:04:59.200Z,100645.44
2023-01-13T12:07:49.020Z,100650.59
2023-01-13T12:10:54.322Z,100644.81
2023-01-13T12:13:34.730Z,100639.03
2023-01-13T12:16:14.862Z,100642.91
2023-01-13T12:19:07.863Z,100651.44
2023-01-13T12:21:57.700Z,100659.16
2023-01-13T12:24:55.228Z,100655.13
2023-01-13T12:27:42.211Z,100668.44
2023-01-13T12:33:21.063Z,100668.94
2023-01-13T12:36:15.950Z,100673.44
2023-01-13T12:38:58.808Z,100667.97
2023-01-13T12:42:11.596Z,100682.94
2023-01-13T12:45:10.121Z,100692.44
2023-01-13T12:47:52.329Z,100685.53
2023-01-13T12:50:44.568Z,100687.97
2023-01-13T12:53:32.785Z,100679.44
2023-01-13T12:56:55.632Z,100687.81
2023-01-13T13:00:50.608Z,100697.84
2023-01-13T13:04:18.888Z,100702.38
2023-01-13T13:07:10.310Z,100705.28
2023-01-13T13:09:44.021Z,100716.22
2023-01-13T13:12:49.967Z,100714.09
2023-01-13T13:15:25.472Z,100722.63
2023-01-13T13:18:17.299Z,100719.88
2023-01-13T13:21:07.463Z,100721.50
2023-01-13T13:23:40.222Z,100736.47
2023-01-13T13:29:44.450Z,100735.84
2023-01-13T13:32:45.323Z,100750.75
2023-01-13T13:35:52.895Z,100743.88
2023-01-13T13:39:02.930Z,100752.56
2023-01-13T13:41:49.051Z,100764.47
2023-01-13T13:44:50.168Z,100758.22
2023-01-13T13:47:16.705Z,100759.31
2023-01-13T13:49:53.850Z,100763.69
2023-01-13T13:52:41.625Z,100776.53
2023-01-13T13:55:18.412Z,100779.88
2023-01-13T13:57:48.548Z,100786.47
2023-01-13T14:00:15.502Z,100789.22
2023-01-13T14:02:49.504Z,100798.22
2023-01-13T14:05:25.309Z,100808.34
2023-01-13T14:07:59.415Z,100803.19
2023-01-13T14:10:34.932Z,100813.31
2023-01-13T14:13:12.921Z,100814.13
2023-01-13T14:15:41.099Z,100828.59
2023-01-13T14:18:15.957Z,100834.34
2023-01-13T14:20:43.591Z,100832.75
2023-01-13T14:23:18.055Z,100848.66
2023-01-13T14:25:51.693Z,100851.22
2023-01-13T14:28:26.571Z,100849.59
2023-01-13T14:30:56.701Z,100853.75
2023-01-13T14:33:34.068Z,100865.50
2023-01-13T14:36:16.025Z,100869.03
2023-01-13T14:38:45.323Z,100876.44
2023-01-13T14:41:27.417Z,100866.63
2023-01-13T14:43:59.250Z,100883.00
2023-01-13T14:46:43.725Z,100877.84
2023-01-13T14:49:37.499Z,100875.94
2023-01-13T14:52:22.147Z,100881.38
2023-01-13T14:55:10.228Z,100877.53
2023-01-13T14:57:39.547Z,100879.78
2023-01-13T15:00:15.425Z,100897.59
2023-01-13T15:02:57.224Z,100908.28
2023-01-13T15:05:32.006Z,100925.31
2023-01-13T15:08:10.978Z,100929.75
2023-01-13T15:11:02.591Z,100940.69
2023-01-13T15:13:53.096Z,100939.06
2023-01-13T15:16:25.444Z,100950.81
2023-01-13T15:18:54.499Z,100951.63
2023-01-13T15:21:21.488Z,100951.63
2023-01-13T15:23:47.919Z,100964.78
2023-01-13T15:26:21.918Z,100967.19
2023-01-13T15:28:49.624Z,100967.19
2023-01-13T15:31:16.726Z,100969.13
2023-01-13T15:33:43.737Z,100978.72
2023-01-13T15:36:28.665Z,100981.25
2023-01-13T15:38:57.664Z,100985.09
2023-01-13T15:41:44.995Z,100997.16
2023-01-13T15:44:31.750Z,101005.47
2023-01-13T15:47:01.396Z,101019.72
2023-01-13T15:49:34.840Z,101009.91
2023-01-13T15:52:16.058Z,101016.00
2023-01-13T15:54:42.561Z,101013.56
2023-01-13T15:57:26.251Z,101027.22
2023-01-13T15:59:56.661Z,101023.78
2023-01-13T16:02:24.283Z,101027.09
2023-01-13T16:04:54.038Z,101022.16
2023-01-13T16:07:22.320Z,101041.78
2023-01-13T16:09:49.084Z,101039.94
2023-01-13T16:12:16.153Z,101054.41
2023-01-13T16:14:42.951Z,101064.53
2023-01-13T16:17:16.059Z,101048.94
2023-01-13T16:19:43.332Z,101063.13
2023-01-13T16:22:14.487Z,101063.63
2023-01-13T16:24:41.887Z,101069.06
2023-01-13T16:27:19.992Z,101077.47
2023-01-13T16:29:47.773Z,101073.94
2023-01-13T16:32:14.906Z,101067.66
2023-01-13T16:34:41.750Z,101078.88
2023-01-13T16:37:23.811Z,101096.97
2023-01-13T16:39:50.987Z,101087.78
2023-01-13T16:42:20.775Z,101102.53
2023-01-13T16:44:49.115Z,101084.03
2023-01-13T16:47:20.355Z,101089.78
2023-01-13T16:49:47.014Z,101111.63
2023-01-13T16:52:13.657Z,101116.28
2023-01-13T16:54:40.209Z,101131.66
2023-01-13T16:57:07.896Z,101135.06
2023-01-13T16:59:34.737Z,101126.03
2023-01-13T17:02:03.545Z,101141.78
2023-01-13T17:04:30.120Z,101128.50
2023-01-13T17:07:06.686Z,101135.13
2023-01-13T17:09:34.558Z,101139.56
2023-01-13T17:12:01.515Z,101129.63
2023-01-13T17:14:28.427Z,101136.34
2023-01-13T17:16:58.015Z,101147.91
2023-01-13T17:19:25.831Z,101147.75
2023-01-13T17:21:55.059Z,101160.34
2023-01-13T17:24:22.000Z,101164.47
2023-01-13T17:26:50.565Z,101168.59
2023-01-13T17:29:21.795Z,101176.50
2023-01-13T17:31:49.534Z,101168.00
2023-01-13T17:34:16.323Z,101167.78
2023-01-13T17:36:44.067Z,101166.16
2023-01-13T17:39:27.409Z,101171.38
2023-01-13T17:41:55.911Z,101184.50
2023-01-13T17:44:23.412Z,101181.84
2023-01-13T17:46:50.606Z,101186.22
2023-01-13T17:49:19.673Z,101188.50
2023-01-13T17:51:48.301Z,101197.81
2023-01-13T17:54:15.810Z,101200.63
2023-01-13T17:56:43.524Z,101193.03
2023-01-13T17:59:14.702Z,101191.94
2023-01-13T18:01:41.975Z,101205.03
2023-01-13T18:04:15.375Z,101213.50
2023-01-13T18:06:41.975Z,101214.88
2023-01-13T18:09:08.678Z,101214.34
2023-01-13T18:11:35.344Z,101220.91
2023-01-13T18:14:05.473Z,101222.00
2023-01-13T18:16:32.780Z,101221.47
2023-01-13T18:19:18.519Z,101217.66
2023-01-13T18:22:05.449Z,101220.91
2023-01-13T18:24:50.674Z,101217.66
2023-01-13T18:27:19.491Z,101225.06
2023-01-13T18:29:48.141Z,101224.53
2023-01-13T18:32:14.906Z,101219.38
2023-01-13T18:35:07.413Z,101233.50
2023-01-13T18:40:26.799Z,101252.03
2023-01-13T18:42:56.263Z,101245.50
2023-01-13T18:45:31.093Z,101250.09
2023-01-13T18:48:00.124Z,101254.16
2023-01-13T18:50:30.267Z,101247.31
2023-01-13T18:52:57.725Z,101249.19
2023-01-13T18:55:25.081Z,101252.97
2023-01-13T18:57:52.091Z,101261.38
2023-01-13T19:00:21.480Z,101256.94
2023-01-13T19:05:34.433Z,101257.72
2023-01-13T19:08:01.102Z,101267.50
2023-01-13T19:10:31.722Z,101277.59
2023-01-13T19:12:58.325Z,101278.94
2023-01-13T19:15:27.467Z,101284.38
2023-01-13T19:17:54.057Z,101293.94
2023-01-13T19:20:20.914Z,101293.69
2023-01-13T19:22:53.855Z,101300.78
2023-01-13T19:25:20.528Z,101294.50
2023-01-13T19:27:47.080Z,101295.31
2023-01-13T19:30:14.724Z,101298.03
2023-01-13T19:32:41.496Z,101298.03
2023-01-13T19:35:08.734Z,101303.78
2023-01-13T19:37:37.070Z,101303.03
2023-01-13T19:40:09.488Z,101312.59
2023-01-13T19:42:56.207Z,101313.16
2023-01-13T19:45:30.617Z,101313.97
2023-01-13T19:47:59.158Z,101321.06
2023-01-13T19:50:25.833Z,101332.47
2023-01-13T19:52:53.076Z,101327.56
2023-01-13T19:55:19.946Z,101341.72
2023-01-13T19:57:46.705Z,101329.69
2023-01-13T20:00:15.664Z,101325.06
2023-01-13T20:02:47.913Z,101335.66
2023-01-13T20:05:21.257Z,101340.81
2023-01-13T20:07:49.742Z,101342.16
2023-01-13T20:10:20.389Z,101352.50
2023-01-13T20:12:47.083Z,101359.84
2023-01-13T20:15:13.887Z,101362.88
2023-01-13T20:17:41.577Z,101360.72
2023-01-13T20:20:35.755Z,101355.25
2023-01-13T20:23:07.797Z,101361.06
2023-01-13T20:25:47.656Z,101362.69
2023-01-13T20:28:14.731Z,101359.09
2023-01-13T20:34:23.868Z,101359.03
2023-01-13T20:36:54.129Z,101367.78
2023-01-13T20:39:27.062Z,101361.28
2023-01-13T20:42:13.795Z,101376.53
2023-01-13T20:44:45.308Z,101392.59
2023-01-13T20:47:12.636Z,101394.47
2023-01-13T20:49:47.692Z,101396.91
2023-01-13T20:52:14.686Z,101407.81
2023-01-13T20:54:41.796Z,101399.91
2023-01-13T20:57:19.103Z,101403.72
2023-01-13T20:59:45.786Z,101402.69
2023-01-13T21:02:15.113Z,101408.75
2023-01-13T21:04:50.334Z,101413.72
2023-01-13T21:07:17.020Z,101414.28
2023-01-13T21:09:43.710Z,101423.25
2023-01-13T21:12:32.765Z,101424.06
2023-01-13T21:15:17.682Z,101434.97
2023-01-13T21:18:03.709Z,101430.06
2023-01-13T21:20:30.755Z,101439.06
2023-01-13T21:22:57.314Z,101437.69
2023-01-13T21:25:36.775Z,101439.03
2023-01-13T21:28:25.425Z,101444.47
2023-01-13T21:30:53.506Z,101440.41
2023-01-13T21:33:21.642Z,101445.84
2023-01-13T21:35:54.943Z,101448.06
2023-01-13T21:38:22.004Z,101457.06
2023-01-13T21:41:01.616Z,101453.00
2023-01-13T21:43:51.160Z,101449.16
2023-01-13T21:46:38.530Z,101449.47
2023-01-13T21:49:07.347Z,101461.16
2023-01-13T21:51:34.775Z,101456.28
2023-01-13T21:54:01.745Z,101461.19
2023-01-13T21:56:28.220Z,101465.00
2023-01-13T21:58:57.629Z,101466.09
2023-01-13T22:01:24.670Z,101464.19
2023-01-13T22:04:09.898Z,101467.44
2023-01-13T22:06:36.506Z,101476.44
2023-01-13T22:09:03.211Z,101472.63
2023-01-13T22:11:31.764Z,101484.03
2023-01-13T22:14:09.468Z,101480.19
2023-01-13T22:16:50.104Z,101496.25
2023-01-13T22:19:19.623Z,101496.25
2023-01-13T22:21:46.280Z,101498.72
2023-01-13T22:24:12.813Z,101500.31
2023-01-13T22:26:39.482Z,101503.81
2023-01-13T22:29:06.482Z,101513.03
2023-01-13T22:31:33.337Z,101506.50
2023-01-13T22:33:59.882Z,101509.47
2023-01-13T22:36:26.941Z,101511.91
2023-01-13T22:38:55.904Z,101508.94
2023-01-13T22:41:23.522Z,101507.91
2023-01-13T22:43:50.091Z,101507.34
2023-01-13T22:46:19.672Z,101500.03
2023-01-13T22:48:48.538Z,101510.38
2023-01-13T22:51:18.650Z,101504.13
2023-01-13T22:53:47.329Z,101507.66
2023-01-13T22:56:19.450Z,101513.13
2023-01-13T22:58:46.128Z,101518.31
2023-01-13T23:01:15.579Z,101519.69
2023-01-13T23:03:42.489Z,101514.22
2023-01-13T23:06:09.274Z,101517.25
2023-01-13T23:08:41.135Z,101522.13
2023-01-13T23:11:10.131Z,101522.13
2023-01-13T23:13:42.193Z,101523.22
2023-01-13T23:16:12.830Z,101527.03
2023-01-13T23:18:42.581Z,101525.69
2023-01-13T23:21:14.746Z,101524.31
2023-01-13T23:23:41.872Z,101520.50
2023-01-13T23:26:09.410Z,101518.59
2023-01-13T23:28:36.598Z,101516.69
2023-01-13T23:31:22.146Z,101509.84
2023-01-13T23:33:49.176Z,101500.03
2023-01-13T23:36:19.499Z,101503.00
2023-01-13T23:38:46.897Z,101503.53
2023-01-13T23:41:15.555Z,101496.19
2023-01-13T23:43:49.082Z,101494.28
2023-01-13T23:46:17.032Z,101494.78
2023-01-13T23:48:43.688Z,101495.59
2023-01-13T23:51:13.763Z,101497.22
2023-01-13T23:53:43.849Z,101500.19
2023-01-13T23:56:13.927Z,101504.00
2023-01-13T23:58:41.823Z,101502.38
